sensor_id;sensor_type;location;lat;lon;timestamp;temperature;humidity
5743;DHT22;2896;53.500;10.020;2023-02-01T00:02:13;4.50;1.00
5743;DHT22;2896;53.500;10.020;2023-02-01T00:04:41;4.50;1.00
5743;DHT22;2896;53.500;10.020;2023-02-01T00:07:08;4.60;99.90
5743;DHT22;2896;53.500;10.020;2023-02-01T00:09:35;4.70;99.90
5743;DHT22;2896;53.500;10.020;2023-02-01T00:12:01;4.70;99.90
5743;DHT22;2896;53.500;10.020;2023-02-01T00:14:29;4.90;99.90
5743;DHT22;2896;53.500;10.020;2023-02-01T00:16:57;4.80;99.90
5743;DHT22;2896;53.500;10.020;2023-02-01T00:19:24;4.90;99.90
5743;DHT22;2896;53.500;10.020;2023-02-01T00:21:52;4.80;99.90
5743;DHT22;2896;53.500;10.020;2023-02-01T00:24:18;4.80;99.90
5743;DHT22;2896;53.500;10.020;2023-02-01T00:26:45;4.90;99.90
5743;DHT22;2896;53.500;10.020;2023-02-01T00:29:13;4.90;99.90
5743;DHT22;2896;53.500;10.020;2023-02-01T00:31:40;5.00;99.90
5743;DHT22;2896;53.500;10.020;2023-02-01T00:34:08;5.00;99.90
5743;DHT22;2896;53.500;10.020;2023-02-01T00:36:35;5.10;99.90
5743;DHT22;2896;53.500;10.020;2023-02-01T00:39:03;5.20;99.90
5743;DHT22;2896;53.500;10.020;2023-02-01T00:41:30;5.20;99.90
5743;DHT22;2896;53.500;10.020;2023-02-01T00:43:56;5.20;99.90
5743;DHT22;2896;53.500;10.020;2023-02-01T00:46:23;5.20;99.90
5743;DHT22;2896;53.500;10.020;2023-02-01T00:48:51;5.30;99.90
5743;DHT22;2896;53.500;10.020;2023-02-01T00:51:19;5.30;99.90
5743;DHT22;2896;53.500;10.020;2023-02-01T00:53:46;5.30;99.90
5743;DHT22;2896;53.500;10.020;2023-02-01T00:56:14;5.30;99.90
5743;DHT22;2896;53.500;10.020;2023-02-01T00:58:42;5.40;99.90
5743;DHT22;2896;53.500;10.020;2023-02-01T01:01:11;5.40;99.90
5743;DHT22;2896;53.500;10.020;2023-02-01T01:03:40;5.30;99.90
5743;DHT22;2896;53.500;10.020;2023-02-01T01:06:10;5.40;99.90
5743;DHT22;2896;53.500;10.020;2023-02-01T01:08:37;5.40;99.90
5743;DHT22;2896;53.500;10.020;2023-02-01T01:11:05;5.40;99.90
5743;DHT22;2896;53.500;10.020;2023-02-01T01:13:34;5.50;99.90
5743;DHT22;2896;53.500;10.020;2023-02-01T01:16:01;5.50;99.90
5743;DHT22;2896;53.500;10.020;2023-02-01T01:18:28;5.50;99.90
5743;DHT22;2896;53.500;10.020;2023-02-01T01:20:55;5.50;99.90
5743;DHT22;2896;53.500;10.020;2023-02-01T01:23:22;5.50;99.90
5743;DHT22;2896;53.500;10.020;2023-02-01T01:25:49;5.60;99.90
5743;DHT22;2896;53.500;10.020;2023-02-01T01:28:15;5.50;99.90
5743;DHT22;2896;53.500;10.020;2023-02-01T01:30:43;5.60;99.90
5743;DHT22;2896;53.500;10.020;2023-02-01T01:33:10;5.60;99.90
5743;DHT22;2896;53.500;10.020;2023-02-01T01:35:37;5.60;99.90
5743;DHT22;2896;53.500;10.020;2023-02-01T01:38:04;5.60;99.90
5743;DHT22;2896;53.500;10.020;2023-02-01T01:40:31;5.60;99.90
5743;DHT22;2896;53.500;10.020;2023-02-01T01:42:58;5.70;99.90
5743;DHT22;2896;53.500;10.020;2023-02-01T01:45:27;5.60;99.90
5743;DHT22;2896;53.500;10.020;2023-02-01T01:47:58;5.70;99.90
5743;DHT22;2896;53.500;10.020;2023-02-01T01:50:28;5.70;99.90
5743;DHT22;2896;53.500;10.020;2023-02-01T01:52:57;5.60;99.90
5743;DHT22;2896;53.500;10.020;2023-02-01T01:55:27;5.60;99.90
5743;DHT22;2896;53.500;10.020;2023-02-01T01:58:00;5.70;99.90
5743;DHT22;2896;53.500;10.020;2023-02-01T02:00:28;5.70;99.90
5743;DHT22;2896;53.500;10.020;2023-02-01T02:02:59;5.60;99.90
5743;DHT22;2896;53.500;10.020;2023-02-01T02:05:28;5.70;99.90
5743;DHT22;2896;53.500;10.020;2023-02-01T02:07:58;5.60;99.90
5743;DHT22;2896;53.500;10.020;2023-02-01T02:10:26;5.60;99.90
5743;DHT22;2896;53.500;10.020;2023-02-01T02:13:14;5.70;99.90
5743;DHT22;2896;53.500;10.020;2023-02-01T02:15:45;5.70;99.90
5743;DHT22;2896;53.500;10.020;2023-02-01T02:18:21;5.60;99.90
5743;DHT22;2896;53.500;10.020;2023-02-01T02:21:15;5.70;99.90
5743;DHT22;2896;53.500;10.020;2023-02-01T02:27:02;5.70;99.90
5743;DHT22;2896;53.500;10.020;2023-02-01T02:30:02;5.60;99.90
5743;DHT22;2896;53.500;10.020;2023-02-01T02:32:56;5.50;99.90
5743;DHT22;2896;53.500;10.020;2023-02-01T02:35:30;5.50;99.90
5743;DHT22;2896;53.500;10.020;2023-02-01T02:38:08;5.60;99.90
5743;DHT22;2896;53.500;10.020;2023-02-01T02:40:43;5.50;99.90
5743;DHT22;2896;53.500;10.020;2023-02-01T02:43:14;5.50;99.90
5743;DHT22;2896;53.500;10.020;2023-02-01T02:46:03;5.50;99.90
5743;DHT22;2896;53.500;10.020;2023-02-01T02:48:59;5.50;99.90
5743;DHT22;2896;53.500;10.020;2023-02-01T02:51:32;5.50;99.90
5743;DHT22;2896;53.500;10.020;2023-02-01T02:54:20;5.60;99.90
5743;DHT22;2896;53.500;10.020;2023-02-01T02:57:08;5.60;99.90
5743;DHT22;2896;53.500;10.020;2023-02-01T02:59:53;5.50;99.90
5743;DHT22;2896;53.500;10.020;2023-02-01T03:02:40;5.50;99.90
5743;DHT22;2896;53.500;10.020;2023-02-01T03:05:24;5.50;99.90
5743;DHT22;2896;53.500;10.020;2023-02-01T03:08:02;5.50;99.90
5743;DHT22;2896;53.500;10.020;2023-02-01T03:10:38;5.50;99.90
5743;DHT22;2896;53.500;10.020;2023-02-01T03:13:11;5.40;99.90
5743;DHT22;2896;53.500;10.020;2023-02-01T03:15:40;5.50;99.90
5743;DHT22;2896;53.500;10.020;2023-02-01T03:18:13;5.40;99.90
5743;DHT22;2896;53.500;10.020;2023-02-01T03:20:45;5.40;99.90
5743;DHT22;2896;53.500;10.020;2023-02-01T03:23:18;5.40;99.90
5743;DHT22;2896;53.500;10.020;2023-02-01T03:25:48;5.50;99.90
5743;DHT22;2896;53.500;10.020;2023-02-01T03:28:17;5.40;1.00
5743;DHT22;2896;53.500;10.020;2023-02-01T03:30:48;5.40;1.00
5743;DHT22;2896;53.500;10.020;2023-02-01T03:33:18;5.30;1.00
5743;DHT22;2896;53.500;10.020;2023-02-01T03:35:54;5.20;1.00
5743;DHT22;2896;53.500;10.020;2023-02-01T03:38:25;5.10;1.00
5743;DHT22;2896;53.500;10.020;2023-02-01T03:40:57;5.00;1.00
5743;DHT22;2896;53.500;10.020;2023-02-01T03:43:29;4.80;1.00
5743;DHT22;2896;53.500;10.020;2023-02-01T03:46:04;4.70;1.00
5743;DHT22;2896;53.500;10.020;2023-02-01T03:48:33;4.50;1.00
5743;DHT22;2896;53.500;10.020;2023-02-01T03:51:03;4.60;1.00
5743;DHT22;2896;53.500;10.020;2023-02-01T03:53:34;4.60;1.00
5743;DHT22;2896;53.500;10.020;2023-02-01T03:56:02;4.60;1.00
5743;DHT22;2896;53.500;10.020;2023-02-01T03:58:29;4.60;1.00
5743;DHT22;2896;53.500;10.020;2023-02-01T04:00:58;4.60;1.00
5743;DHT22;2896;53.500;10.020;2023-02-01T04:03:26;4.70;1.00
5743;DHT22;2896;53.500;10.020;2023-02-01T04:05:53;4.70;1.00
5743;DHT22;2896;53.500;10.020;2023-02-01T04:08:20;4.70;1.00
5743;DHT22;2896;53.500;10.020;2023-02-01T04:10:49;4.70;1.00
5743;DHT22;2896;53.500;10.020;2023-02-01T04:13:16;4.80;1.00
5743;DHT22;2896;53.500;10.020;2023-02-01T04:15:42;4.80;1.00
5743;DHT22;2896;53.500;10.020;2023-02-01T04:18:09;4.80;1.00
5743;DHT22;2896;53.500;10.020;2023-02-01T04:20:35;4.80;1.00
5743;DHT22;2896;53.500;10.020;2023-02-01T04:23:02;4.80;1.00
5743;DHT22;2896;53.500;10.020;2023-02-01T04:25:29;4.80;1.00
5743;DHT22;2896;53.500;10.020;2023-02-01T04:27:57;4.80;1.00
5743;DHT22;2896;53.500;10.020;2023-02-01T04:30:24;4.80;1.00
5743;DHT22;2896;53.500;10.020;2023-02-01T04:32:51;4.80;1.00
5743;DHT22;2896;53.500;10.020;2023-02-01T04:35:18;4.80;1.00
5743;DHT22;2896;53.500;10.020;2023-02-01T04:37:44;4.80;1.00
5743;DHT22;2896;53.500;10.020;2023-02-01T04:40:12;4.80;1.00
5743;DHT22;2896;53.500;10.020;2023-02-01T04:42:38;4.80;1.00
5743;DHT22;2896;53.500;10.020;2023-02-01T04:45:07;3.00;1.00
5743;DHT22;2896;53.500;10.020;2023-02-01T04:47:34;4.90;1.00
5743;DHT22;2896;53.500;10.020;2023-02-01T04:50:01;4.80;1.00
5743;DHT22;2896;53.500;10.020;2023-02-01T04:52:27;4.80;1.00
5743;DHT22;2896;53.500;10.020;2023-02-01T04:54:54;4.80;1.00
5743;DHT22;2896;53.500;10.020;2023-02-01T04:57:23;4.80;1.00
5743;DHT22;2896;53.500;10.020;2023-02-01T04:59:49;4.80;1.00
5743;DHT22;2896;53.500;10.020;2023-02-01T05:02:17;4.70;1.00
5743;DHT22;2896;53.500;10.020;2023-02-01T05:04:44;4.70;1.00
5743;DHT22;2896;53.500;10.020;2023-02-01T05:07:11;4.70;1.00
5743;DHT22;2896;53.500;10.020;2023-02-01T05:09:37;4.60;1.00
5743;DHT22;2896;53.500;10.020;2023-02-01T05:12:05;4.60;1.00
5743;DHT22;2896;53.500;10.020;2023-02-01T05:14:49;4.60;1.00
5743;DHT22;2896;53.500;10.020;2023-02-01T05:17:15;4.50;1.00
5743;DHT22;2896;53.500;10.020;2023-02-01T05:19:43;4.30;1.00
5743;DHT22;2896;53.500;10.020;2023-02-01T05:22:10;4.10;1.00
5743;DHT22;2896;53.500;10.020;2023-02-01T05:24:37;3.90;1.00
5743;DHT22;2896;53.500;10.020;2023-02-01T05:27:04;3.80;1.00
5743;DHT22;2896;53.500;10.020;2023-02-01T05:29:30;3.70;1.00
5743;DHT22;2896;53.500;10.020;2023-02-01T05:31:57;3.60;1.00
5743;DHT22;2896;53.500;10.020;2023-02-01T05:34:23;3.50;1.00
5743;DHT22;2896;53.500;10.020;2023-02-01T05:36:51;3.50;1.00
5743;DHT22;2896;53.500;10.020;2023-02-01T05:39:18;3.40;1.00
5743;DHT22;2896;53.500;10.020;2023-02-01T05:41:45;3.40;1.00
5743;DHT22;2896;53.500;10.020;2023-02-01T05:44:11;3.30;1.00
5743;DHT22;2896;53.500;10.020;2023-02-01T05:46:38;3.30;1.00
5743;DHT22;2896;53.500;10.020;2023-02-01T05:49:05;3.20;1.00
5743;DHT22;2896;53.500;10.020;2023-02-01T05:51:31;3.20;1.00
5743;DHT22;2896;53.500;10.020;2023-02-01T05:54:00;3.20;1.00
5743;DHT22;2896;53.500;10.020;2023-02-01T05:56:26;3.20;1.00
5743;DHT22;2896;53.500;10.020;2023-02-01T05:58:53;3.20;1.00
5743;DHT22;2896;53.500;10.020;2023-02-01T06:01:19;3.10;1.00
5743;DHT22;2896;53.500;10.020;2023-02-01T06:03:46;3.10;1.00
5743;DHT22;2896;53.500;10.020;2023-02-01T06:06:13;3.10;1.00
5743;DHT22;2896;53.500;10.020;2023-02-01T06:08:39;3.20;1.00
5743;DHT22;2896;53.500;10.020;2023-02-01T06:11:07;3.20;1.00
5743;DHT22;2896;53.500;10.020;2023-02-01T06:13:34;3.20;1.00
5743;DHT22;2896;53.500;10.020;2023-02-01T06:16:03;3.20;1.00
5743;DHT22;2896;53.500;10.020;2023-02-01T06:18:31;3.30;1.00
5743;DHT22;2896;53.500;10.020;2023-02-01T06:20:58;3.30;1.00
5743;DHT22;2896;53.500;10.020;2023-02-01T06:23:26;3.30;1.00
5743;DHT22;2896;53.500;10.020;2023-02-01T06:25:57;3.30;1.00
5743;DHT22;2896;53.500;10.020;2023-02-01T06:28:26;3.40;67.20
5743;DHT22;2896;53.500;10.020;2023-02-01T06:30:53;3.40;95.00
5743;DHT22;2896;53.500;10.020;2023-02-01T06:33:19;3.40;99.90
5743;DHT22;2896;53.500;10.020;2023-02-01T06:35:46;3.50;99.90
5743;DHT22;2896;53.500;10.020;2023-02-01T06:38:13;3.50;99.90
5743;DHT22;2896;53.500;10.020;2023-02-01T06:40:41;3.50;99.90
5743;DHT22;2896;53.500;10.020;2023-02-01T06:43:08;3.70;1.00
5743;DHT22;2896;53.500;10.020;2023-02-01T06:45:36;3.60;99.90
5743;DHT22;2896;53.500;10.020;2023-02-01T06:48:02;3.70;1.00
5743;DHT22;2896;53.500;10.020;2023-02-01T06:50:29;3.80;1.00
5743;DHT22;2896;53.500;10.020;2023-02-01T06:52:56;3.80;1.00
5743;DHT22;2896;53.500;10.020;2023-02-01T06:55:22;4.00;1.00
5743;DHT22;2896;53.500;10.020;2023-02-01T06:57:53;4.00;1.00
5743;DHT22;2896;53.500;10.020;2023-02-01T07:00:20;3.80;1.00
5743;DHT22;2896;53.500;10.020;2023-02-01T07:02:49;4.10;1.00
5743;DHT22;2896;53.500;10.020;2023-02-01T07:05:16;4.10;1.00
5743;DHT22;2896;53.500;10.020;2023-02-01T07:07:43;4.10;1.00
5743;DHT22;2896;53.500;10.020;2023-02-01T07:10:10;4.10;1.00
5743;DHT22;2896;53.500;10.020;2023-02-01T07:12:37;4.20;1.00
5743;DHT22;2896;53.500;10.020;2023-02-01T07:15:05;6.60;1.00
5743;DHT22;2896;53.500;10.020;2023-02-01T07:17:32;4.30;1.00
5743;DHT22;2896;53.500;10.020;2023-02-01T07:20:00;4.30;1.00
5743;DHT22;2896;53.500;10.020;2023-02-01T07:22:27;4.30;1.00
5743;DHT22;2896;53.500;10.020;2023-02-01T07:24:53;4.30;1.00
5743;DHT22;2896;53.500;10.020;2023-02-01T07:27:21;4.20;1.00
5743;DHT22;2896;53.500;10.020;2023-02-01T07:29:50;4.20;1.00
5743;DHT22;2896;53.500;10.020;2023-02-01T07:32:16;4.20;1.00
5743;DHT22;2896;53.500;10.020;2023-02-01T07:34:43;4.30;1.00
5743;DHT22;2896;53.500;10.020;2023-02-01T07:37:11;4.40;1.00
5743;DHT22;2896;53.500;10.020;2023-02-01T07:39:38;4.40;1.00
5743;DHT22;2896;53.500;10.020;2023-02-01T07:42:05;4.50;1.00
5743;DHT22;2896;53.500;10.020;2023-02-01T07:44:32;4.50;1.00
5743;DHT22;2896;53.500;10.020;2023-02-01T07:46:58;4.60;1.00
5743;DHT22;2896;53.500;10.020;2023-02-01T07:49:25;4.70;1.00
5743;DHT22;2896;53.500;10.020;2023-02-01T07:51:52;4.80;99.90
5743;DHT22;2896;53.500;10.020;2023-02-01T07:54:20;4.80;99.90
5743;DHT22;2896;53.500;10.020;2023-02-01T07:56:46;4.90;99.90
5743;DHT22;2896;53.500;10.020;2023-02-01T07:59:13;4.90;99.90
5743;DHT22;2896;53.500;10.020;2023-02-01T08:01:40;4.90;99.90
5743;DHT22;2896;53.500;10.020;2023-02-01T08:04:06;5.00;99.90
5743;DHT22;2896;53.500;10.020;2023-02-01T08:06:33;5.00;99.90
5743;DHT22;2896;53.500;10.020;2023-02-01T08:09:00;5.10;99.90
5743;DHT22;2896;53.500;10.020;2023-02-01T08:11:28;5.10;99.90
5743;DHT22;2896;53.500;10.020;2023-02-01T08:13:55;5.20;57.40
5743;DHT22;2896;53.500;10.020;2023-02-01T08:16:22;5.20;1.00
5743;DHT22;2896;53.500;10.020;2023-02-01T08:18:49;5.30;1.00
5743;DHT22;2896;53.500;10.020;2023-02-01T08:21:18;5.20;1.00
5743;DHT22;2896;53.500;10.020;2023-02-01T08:23:45;5.30;1.00
5743;DHT22;2896;53.500;10.020;2023-02-01T08:26:14;5.40;1.00
5743;DHT22;2896;53.500;10.020;2023-02-01T08:28:44;5.60;1.00
5743;DHT22;2896;53.500;10.020;2023-02-01T08:31:13;5.60;1.00
5743;DHT22;2896;53.500;10.020;2023-02-01T08:33:41;5.70;1.00
5743;DHT22;2896;53.500;10.020;2023-02-01T08:36:09;5.90;1.00
5743;DHT22;2896;53.500;10.020;2023-02-01T08:38:37;6.10;1.00
5743;DHT22;2896;53.500;10.020;2023-02-01T08:41:05;6.30;1.00
5743;DHT22;2896;53.500;10.020;2023-02-01T08:43:32;6.20;1.00
5743;DHT22;2896;53.500;10.020;2023-02-01T08:46:00;6.10;1.00
5743;DHT22;2896;53.500;10.020;2023-02-01T08:48:26;6.10;1.00
5743;DHT22;2896;53.500;10.020;2023-02-01T08:50:53;6.20;1.00
5743;DHT22;2896;53.500;10.020;2023-02-01T08:53:20;6.20;1.00
5743;DHT22;2896;53.500;10.020;2023-02-01T08:55:46;6.30;1.00
5743;DHT22;2896;53.500;10.020;2023-02-01T08:58:13;6.50;1.00
5743;DHT22;2896;53.500;10.020;2023-02-01T09:00:42;6.60;1.00
5743;DHT22;2896;53.500;10.020;2023-02-01T09:03:11;6.40;1.00
5743;DHT22;2896;53.500;10.020;2023-02-01T09:05:38;6.40;1.00
5743;DHT22;2896;53.500;10.020;2023-02-01T09:08:05;6.40;99.90
5743;DHT22;2896;53.500;10.020;2023-02-01T09:10:32;6.40;99.90
5743;DHT22;2896;53.500;10.020;2023-02-01T09:12:59;6.50;99.90
5743;DHT22;2896;53.500;10.020;2023-02-01T09:15:25;6.50;99.90
5743;DHT22;2896;53.500;10.020;2023-02-01T09:17:52;6.40;99.90
5743;DHT22;2896;53.500;10.020;2023-02-01T09:20:20;6.40;99.90
5743;DHT22;2896;53.500;10.020;2023-02-01T09:22:50;6.50;99.90
5743;DHT22;2896;53.500;10.020;2023-02-01T09:25:16;6.60;99.90
5743;DHT22;2896;53.500;10.020;2023-02-01T09:27:43;6.60;99.90
5743;DHT22;2896;53.500;10.020;2023-02-01T09:30:10;6.40;99.90
5743;DHT22;2896;53.500;10.020;2023-02-01T09:32:37;6.10;99.90
5743;DHT22;2896;53.500;10.020;2023-02-01T09:35:04;5.90;1.00
5743;DHT22;2896;53.500;10.020;2023-02-01T09:37:32;5.90;1.00
5743;DHT22;2896;53.500;10.020;2023-02-01T09:39:59;5.90;1.00
5743;DHT22;2896;53.500;10.020;2023-02-01T09:42:43;6.00;1.00
5743;DHT22;2896;53.500;10.020;2023-02-01T09:45:19;6.10;1.00
5743;DHT22;2896;53.500;10.020;2023-02-01T09:47:50;6.30;1.00
5743;DHT22;2896;53.500;10.020;2023-02-01T09:50:19;6.40;1.00
5743;DHT22;2896;53.500;10.020;2023-02-01T09:52:54;6.40;1.00
5743;DHT22;2896;53.500;10.020;2023-02-01T09:55:29;6.50;1.00
5743;DHT22;2896;53.500;10.020;2023-02-01T09:58:00;6.70;1.00
5743;DHT22;2896;53.500;10.020;2023-02-01T10:00:31;6.90;99.90
5743;DHT22;2896;53.500;10.020;2023-02-01T10:03:00;7.00;99.90
5743;DHT22;2896;53.500;10.020;2023-02-01T10:05:43;7.10;99.90
5743;DHT22;2896;53.500;10.020;2023-02-01T10:08:23;7.20;99.90
5743;DHT22;2896;53.500;10.020;2023-02-01T10:10:56;7.10;99.90
5743;DHT22;2896;53.500;10.020;2023-02-01T10:13:34;7.00;99.90
5743;DHT22;2896;53.500;10.020;2023-02-01T10:16:13;7.00;99.90
5743;DHT22;2896;53.500;10.020;2023-02-01T10:19:00;6.90;99.90
5743;DHT22;2896;53.500;10.020;2023-02-01T10:21:42;6.90;99.90
5743;DHT22;2896;53.500;10.020;2023-02-01T10:24:39;6.80;99.90
5743;DHT22;2896;53.500;10.020;2023-02-01T10:27:17;6.90;99.90
5743;DHT22;2896;53.500;10.020;2023-02-01T10:29:46;7.00;99.90
5743;DHT22;2896;53.500;10.020;2023-02-01T10:32:17;6.90;99.90
5743;DHT22;2896;53.500;10.020;2023-02-01T10:34:50;6.70;99.90
5743;DHT22;2896;53.500;10.020;2023-02-01T10:37:24;6.60;99.90
5743;DHT22;2896;53.500;10.020;2023-02-01T10:39:55;6.60;99.90
5743;DHT22;2896;53.500;10.020;2023-02-01T10:42:25;6.60;99.90
5743;DHT22;2896;53.500;10.020;2023-02-01T10:44:54;6.60;99.90
5743;DHT22;2896;53.500;10.020;2023-02-01T10:47:21;6.50;99.90
5743;DHT22;2896;53.500;10.020;2023-02-01T10:49:55;6.40;99.90
5743;DHT22;2896;53.500;10.020;2023-02-01T10:52:34;6.40;1.00
5743;DHT22;2896;53.500;10.020;2023-02-01T10:55:27;6.40;1.00
5743;DHT22;2896;53.500;10.020;2023-02-01T10:57:56;6.40;1.00
5743;DHT22;2896;53.500;10.020;2023-02-01T11:00:24;6.40;1.00
5743;DHT22;2896;53.500;10.020;2023-02-01T11:02:51;6.30;1.00
5743;DHT22;2896;53.500;10.020;2023-02-01T11:05:17;6.20;1.00
5743;DHT22;2896;53.500;10.020;2023-02-01T11:07:47;6.20;1.00
5743;DHT22;2896;53.500;10.020;2023-02-01T11:10:37;6.30;1.00
5743;DHT22;2896;53.500;10.020;2023-02-01T11:13:05;6.30;1.00
5743;DHT22;2896;53.500;10.020;2023-02-01T11:15:31;6.30;1.00
5743;DHT22;2896;53.500;10.020;2023-02-01T11:18:14;6.30;99.90
5743;DHT22;2896;53.500;10.020;2023-02-01T11:20:42;6.30;1.00
5743;DHT22;2896;53.500;10.020;2023-02-01T11:23:14;6.40;1.00
5743;DHT22;2896;53.500;10.020;2023-02-01T11:25:49;6.40;1.00
5743;DHT22;2896;53.500;10.020;2023-02-01T11:28:17;6.40;1.00
5743;DHT22;2896;53.500;10.020;2023-02-01T11:30:45;6.40;1.00
5743;DHT22;2896;53.500;10.020;2023-02-01T11:33:15;5.50;1.00
5743;DHT22;2896;53.500;10.020;2023-02-01T11:35:43;6.60;1.00
5743;DHT22;2896;53.500;10.020;2023-02-01T11:38:21;6.60;1.00
5743;DHT22;2896;53.500;10.020;2023-02-01T11:40:49;6.50;1.00
5743;DHT22;2896;53.500;10.020;2023-02-01T11:43:23;6.60;1.00
5743;DHT22;2896;53.500;10.020;2023-02-01T11:45:58;6.60;99.90
5743;DHT22;2896;53.500;10.020;2023-02-01T11:48:27;6.50;99.90
5743;DHT22;2896;53.500;10.020;2023-02-01T11:51:07;6.60;1.00
5743;DHT22;2896;53.500;10.020;2023-02-01T11:53:44;6.50;99.90
5743;DHT22;2896;53.500;10.020;2023-02-01T11:56:22;6.50;99.90
5743;DHT22;2896;53.500;10.020;2023-02-01T11:59:19;6.60;99.90
5743;DHT22;2896;53.500;10.020;2023-02-01T12:01:59;6.50;99.90
5743;DHT22;2896;53.500;10.020;2023-02-01T12:05:02;6.40;1.00
5743;DHT22;2896;53.500;10.020;2023-02-01T12:07:44;6.30;1.00
5743;DHT22;2896;53.500;10.020;2023-02-01T12:10:23;6.20;99.90
5743;DHT22;2896;53.500;10.020;2023-02-01T12:13:01;6.30;99.90
5743;DHT22;2896;53.500;10.020;2023-02-01T12:15:40;6.20;99.90
5743;DHT22;2896;53.500;10.020;2023-02-01T12:18:36;6.10;99.90
5743;DHT22;2896;53.500;10.020;2023-02-01T12:21:16;6.20;99.90
5743;DHT22;2896;53.500;10.020;2023-02-01T12:24:07;6.10;99.90
5743;DHT22;2896;53.500;10.020;2023-02-01T12:26:44;6.00;99.90
5743;DHT22;2896;53.500;10.020;2023-02-01T12:29:30;6.00;1.00
5743;DHT22;2896;53.500;10.020;2023-02-01T12:32:20;5.90;1.00
5743;DHT22;2896;53.500;10.020;2023-02-01T12:35:13;5.80;1.00
5743;DHT22;2896;53.500;10.020;2023-02-01T12:38:05;5.70;1.00
5743;DHT22;2896;53.500;10.020;2023-02-01T12:40:47;5.60;1.00
5743;DHT22;2896;53.500;10.020;2023-02-01T12:43:17;5.50;1.00
5743;DHT22;2896;53.500;10.020;2023-02-01T12:45:53;5.20;1.00
5743;DHT22;2896;53.500;10.020;2023-02-01T12:48:27;5.10;1.00
5743;DHT22;2896;53.500;10.020;2023-02-01T12:51:09;5.00;1.00
5743;DHT22;2896;53.500;10.020;2023-02-01T12:53:45;4.80;1.00
5743;DHT22;2896;53.500;10.020;2023-02-01T12:56:16;4.80;1.00
5743;DHT22;2896;53.500;10.020;2023-02-01T12:58:48;4.70;1.00
5743;DHT22;2896;53.500;10.020;2023-02-01T13:01:20;4.70;1.00
5743;DHT22;2896;53.500;10.020;2023-02-01T13:03:55;4.60;1.00
5743;DHT22;2896;53.500;10.020;2023-02-01T13:06:28;4.60;1.00
5743;DHT22;2896;53.500;10.020;2023-02-01T13:09:00;4.50;1.00
5743;DHT22;2896;53.500;10.020;2023-02-01T13:11:31;4.50;1.00
5743;DHT22;2896;53.500;10.020;2023-02-01T13:14:02;4.60;1.00
5743;DHT22;2896;53.500;10.020;2023-02-01T13:16:36;4.50;1.00
5743;DHT22;2896;53.500;10.020;2023-02-01T13:19:10;4.70;1.00
5743;DHT22;2896;53.500;10.020;2023-02-01T13:21:41;4.60;1.00
5743;DHT22;2896;53.500;10.020;2023-02-01T13:24:30;4.80;1.00
5743;DHT22;2896;53.500;10.020;2023-02-01T13:26:57;4.90;1.00
5743;DHT22;2896;53.500;10.020;2023-02-01T13:29:24;5.10;1.00
5743;DHT22;2896;53.500;10.020;2023-02-01T13:35:14;5.10;1.00
5743;DHT22;2896;53.500;10.020;2023-02-01T13:38:01;5.10;1.00
5743;DHT22;2896;53.500;10.020;2023-02-01T13:40:36;5.30;99.90
5743;DHT22;2896;53.500;10.020;2023-02-01T13:43:07;5.30;99.90
5743;DHT22;2896;53.500;10.020;2023-02-01T13:45:43;5.50;99.90
5743;DHT22;2896;53.500;10.020;2023-02-01T13:48:19;5.60;99.90
5743;DHT22;2896;53.500;10.020;2023-02-01T13:50:51;5.50;99.90
5743;DHT22;2896;53.500;10.020;2023-02-01T13:53:23;5.30;99.90
5743;DHT22;2896;53.500;10.020;2023-02-01T13:55:56;7.40;99.90
5743;DHT22;2896;53.500;10.020;2023-02-01T13:58:30;5.20;99.90
5743;DHT22;2896;53.500;10.020;2023-02-01T14:03:59;5.20;99.90
5743;DHT22;2896;53.500;10.020;2023-02-01T14:06:44;5.30;99.90
5743;DHT22;2896;53.500;10.020;2023-02-01T14:09:17;5.40;99.90
5743;DHT22;2896;53.500;10.020;2023-02-01T14:11:47;5.50;99.90
5743;DHT22;2896;53.500;10.020;2023-02-01T14:14:44;5.60;99.90
5743;DHT22;2896;53.500;10.020;2023-02-01T14:17:36;5.80;99.90
5743;DHT22;2896;53.500;10.020;2023-02-01T14:23:09;5.60;99.90
5743;DHT22;2896;53.500;10.020;2023-02-01T14:25:40;5.80;99.90
5743;DHT22;2896;53.500;10.020;2023-02-01T14:28:12;5.80;99.90
5743;DHT22;2896;53.500;10.020;2023-02-01T14:30:42;5.50;99.90
5743;DHT22;2896;53.500;10.020;2023-02-01T14:33:18;5.50;99.90
5743;DHT22;2896;53.500;10.020;2023-02-01T14:36:06;5.50;99.90
5743;DHT22;2896;53.500;10.020;2023-02-01T14:38:36;5.40;99.90
5743;DHT22;2896;53.500;10.020;2023-02-01T14:41:24;5.40;1.00
5743;DHT22;2896;53.500;10.020;2023-02-01T14:44:13;5.40;1.00
5743;DHT22;2896;53.500;10.020;2023-02-01T14:47:02;5.30;1.00
5743;DHT22;2896;53.500;10.020;2023-02-01T14:49:31;5.00;1.00
5743;DHT22;2896;53.500;10.020;2023-02-01T14:51:58;4.90;1.00
5743;DHT22;2896;53.500;10.020;2023-02-01T14:54:27;4.80;1.00
5743;DHT22;2896;53.500;10.020;2023-02-01T14:56:54;4.80;1.00
5743;DHT22;2896;53.500;10.020;2023-02-01T14:59:23;4.60;1.00
5743;DHT22;2896;53.500;10.020;2023-02-01T15:01:55;4.60;1.00
5743;DHT22;2896;53.500;10.020;2023-02-01T15:04:26;4.70;1.00
5743;DHT22;2896;53.500;10.020;2023-02-01T15:06:54;4.70;1.00
5743;DHT22;2896;53.500;10.020;2023-02-01T15:09:27;4.70;1.00
5743;DHT22;2896;53.500;10.020;2023-02-01T15:11:57;4.80;1.00
5743;DHT22;2896;53.500;10.020;2023-02-01T15:14:25;4.80;1.00
5743;DHT22;2896;53.500;10.020;2023-02-01T15:16:52;4.90;1.00
5743;DHT22;2896;53.500;10.020;2023-02-01T15:19:21;4.80;1.00
5743;DHT22;2896;53.500;10.020;2023-02-01T15:21:50;4.80;1.00
5743;DHT22;2896;53.500;10.020;2023-02-01T15:24:22;4.80;1.00
5743;DHT22;2896;53.500;10.020;2023-02-01T15:26:50;4.70;1.00
5743;DHT22;2896;53.500;10.020;2023-02-01T15:29:18;4.70;1.00
5743;DHT22;2896;53.500;10.020;2023-02-01T15:31:47;4.60;1.00
5743;DHT22;2896;53.500;10.020;2023-02-01T15:34:14;4.60;1.00
5743;DHT22;2896;53.500;10.020;2023-02-01T15:36:42;4.60;1.00
5743;DHT22;2896;53.500;10.020;2023-02-01T15:39:20;4.50;1.00
5743;DHT22;2896;53.500;10.020;2023-02-01T15:41:53;4.40;1.00
5743;DHT22;2896;53.500;10.020;2023-02-01T15:44:29;4.40;1.00
5743;DHT22;2896;53.500;10.020;2023-02-01T15:46:56;4.40;1.00
5743;DHT22;2896;53.500;10.020;2023-02-01T15:49:27;4.40;1.00
5743;DHT22;2896;53.500;10.020;2023-02-01T15:51:55;4.30;1.00
5743;DHT22;2896;53.500;10.020;2023-02-01T15:54:26;4.40;1.00
5743;DHT22;2896;53.500;10.020;2023-02-01T15:56:56;4.30;1.00
5743;DHT22;2896;53.500;10.020;2023-02-01T15:59:29;4.40;1.00
5743;DHT22;2896;53.500;10.020;2023-02-01T16:01:57;4.40;1.00
5743;DHT22;2896;53.500;10.020;2023-02-01T16:04:25;4.50;1.00
5743;DHT22;2896;53.500;10.020;2023-02-01T16:06:53;4.60;1.00
5743;DHT22;2896;53.500;10.020;2023-02-01T16:09:22;4.40;1.00
5743;DHT22;2896;53.500;10.020;2023-02-01T16:11:56;4.40;1.00
5743;DHT22;2896;53.500;10.020;2023-02-01T16:14:24;4.40;1.00
5743;DHT22;2896;53.500;10.020;2023-02-01T16:16:52;4.40;1.00
5743;DHT22;2896;53.500;10.020;2023-02-01T16:19:18;4.50;1.00
5743;DHT22;2896;53.500;10.020;2023-02-01T16:21:45;4.50;1.00
5743;DHT22;2896;53.500;10.020;2023-02-01T16:24:12;4.50;1.00
5743;DHT22;2896;53.500;10.020;2023-02-01T16:26:39;4.60;1.00
5743;DHT22;2896;53.500;10.020;2023-02-01T16:29:07;4.50;1.00
5743;DHT22;2896;53.500;10.020;2023-02-01T16:31:35;4.70;1.00
5743;DHT22;2896;53.500;10.020;2023-02-01T16:34:03;4.60;1.00
5743;DHT22;2896;53.500;10.020;2023-02-01T16:36:30;4.60;1.00
5743;DHT22;2896;53.500;10.020;2023-02-01T16:38:56;4.60;1.00
5743;DHT22;2896;53.500;10.020;2023-02-01T16:41:24;4.60;1.00
5743;DHT22;2896;53.500;10.020;2023-02-01T16:43:54;4.70;1.00
5743;DHT22;2896;53.500;10.020;2023-02-01T16:46:24;4.70;1.00
5743;DHT22;2896;53.500;10.020;2023-02-01T16:48:54;4.70;1.00
5743;DHT22;2896;53.500;10.020;2023-02-01T16:51:22;4.70;1.00